sensor_id;sensor_type;location;lat;lon;timestamp;pressure;altitude;pressure_sealevel;temperature;humidity
6196;BME280;3131;42.630;23.382;2023-01-29T00:00:37;94400.61;;;-0.41;100.00
6196;BME280;3131;42.630;23.382;2023-01-29T00:03:06;94392.95;;;-0.32;100.00
6196;BME280;3131;42.630;23.382;2023-01-29T00:05:35;94400.16;;;-0.23;100.00
6196;BME280;3131;42.630;23.382;2023-01-29T00:08:06;94400.61;;;-0.41;100.00
6196;BME280;3131;42.630;23.382;2023-01-29T00:10:35;94400.54;;;-0.38;100.00
6196;BME280;3131;42.630;23.382;2023-01-29T00:13:04;94407.59;;;-0.39;100.00
6196;BME280;3131;42.630;23.382;2023-01-29T00:15:33;94419.04;;;-0.52;100.00
6196;BME280;3131;42.630;23.382;2023-01-29T00:18:03;94419.52;;;-0.54;100.00
6196;BME280;3131;42.630;23.382;2023-01-29T00:20:32;94422.37;;;-0.53;100.00
6196;BME280;3131;42.630;23.382;2023-01-29T00:23:02;94420.83;;;-0.57;100.00
6196;BME280;3131;42.630;23.382;2023-01-29T00:25:32;94419.11;;;-0.55;100.00
6196;BME280;3131;42.630;23.382;2023-01-29T00:28:01;94431.05;;;-0.53;100.00
6196;BME280;3131;42.630;23.382;2023-01-29T00:30:30;94436.02;;;-0.54;100.00
6196;BME280;3131;42.630;23.382;2023-01-29T00:32:59;94444.67;;;-0.53;100.00
6196;BME280;3131;42.630;23.382;2023-01-29T00:35:28;94439.73;;;-0.54;100.00
6196;BME280;3131;42.630;23.382;2023-01-29T00:37:58;94442.27;;;-0.56;100.00
6196;BME280;3131;42.630;23.382;2023-01-29T00:40:27;94440.00;;;-0.65;100.00
6196;BME280;3131;42.630;23.382;2023-01-29T00:42:58;94440.64;;;-0.57;100.00
6196;BME280;3131;42.630;23.382;2023-01-29T00:45:45;94436.52;;;-0.58;100.00
6196;BME280;3131;42.630;23.382;2023-01-29T00:48:14;94442.78;;;-0.61;100.00
6196;BME280;3131;42.630;23.382;2023-01-29T00:50:43;94439.12;;;-0.62;100.00
6196;BME280;3131;42.630;23.382;2023-01-29T00:53:12;94435.85;;;-0.64;100.00
6196;BME280;3131;42.630;23.382;2023-01-29T00:55:42;94435.35;;;-0.61;100.00
6196;BME280;3131;42.630;23.382;2023-01-29T00:58:12;94435.55;;;-0.51;100.00
6196;BME280;3131;42.630;23.382;2023-01-29T01:00:43;94441.97;;;-0.43;100.00
6196;BME280;3131;42.630;23.382;2023-01-29T01:03:12;94436.42;;;-0.53;100.00
6196;BME280;3131;42.630;23.382;2023-01-29T01:05:41;94435.64;;;-0.55;100.00
6196;BME280;3131;42.630;23.382;2023-01-29T01:08:11;94435.69;;;-0.57;100.00
6196;BME280;3131;42.630;23.382;2023-01-29T01:11:04;94433.07;;;-0.51;100.00
6196;BME280;3131;42.630;23.382;2023-01-29T01:13:34;94385.18;;;-0.85;100.00
6196;BME280;3131;42.630;23.382;2023-01-29T01:16:08;94433.69;;;-0.60;100.00
6196;BME280;3131;42.630;23.382;2023-01-29T01:18:38;94428.14;;;-0.52;100.00
6196;BME280;3131;42.630;23.382;2023-01-29T01:21:07;94430.37;;;-0.59;100.00
6196;BME280;3131;42.630;23.382;2023-01-29T01:23:36;94422.71;;;-0.66;100.00
6196;BME280;3131;42.630;23.382;2023-01-29T01:26:09;94422.23;;;-0.64;100.00
6196;BME280;3131;42.630;23.382;2023-01-29T01:28:38;94420.30;;;-0.69;100.00
6196;BME280;3131;42.630;23.382;2023-01-29T01:31:11;94419.53;;;-0.73;100.00
6196;BME280;3131;42.630;23.382;2023-01-29T01:33:42;94382.58;;;-0.99;100.00
6196;BME280;3131;42.630;23.382;2023-01-29T01:36:11;94422.42;;;-0.72;100.00
6196;BME280;3131;42.630;23.382;2023-01-29T01:38:40;94416.39;;;-0.80;100.00
6196;BME280;3131;42.630;23.382;2023-01-29T01:41:13;94417.23;;;-0.79;100.00
6196;BME280;3131;42.630;23.382;2023-01-29T01:43:50;94423.66;;;-0.72;100.00
6196;BME280;3131;42.630;23.382;2023-01-29T01:46:20;94418.42;;;-0.78;100.00
6196;BME280;3131;42.630;23.382;2023-01-29T01:48:52;94415.52;;;-0.77;100.00
6196;BME280;3131;42.630;23.382;2023-01-29T01:51:23;94417.92;;;-0.74;100.00
6196;BME280;3131;42.630;23.382;2023-01-29T01:53:56;94414.87;;;-0.67;100.00
6196;BME280;3131;42.630;23.382;2023-01-29T01:56:28;94428.61;;;-0.72;100.00
6196;BME280;3131;42.630;23.382;2023-01-29T01:59:00;94425.73;;;-0.73;100.00
6196;BME280;3131;42.630;23.382;2023-01-29T02:01:29;94432.98;;;-0.83;100.00
6196;BME280;3131;42.630;23.382;2023-01-29T02:04:01;94435.45;;;-0.83;100.00
6196;BME280;3131;42.630;23.382;2023-01-29T02:09:30;94446.08;;;-0.78;100.00
6196;BME280;3131;42.630;23.382;2023-01-29T02:12:06;94437.91;;;-0.82;100.00
6196;BME280;3131;42.630;23.382;2023-01-29T02:14:37;94433.77;;;-0.81;100.00
6196;BME280;3131;42.630;23.382;2023-01-29T02:17:08;94437.94;;;-0.83;100.00
6196;BME280;3131;42.630;23.382;2023-01-29T02:19:43;94430.08;;;-0.83;100.00
6196;BME280;3131;42.630;23.382;2023-01-29T02:25:47;94438.28;;;-0.79;100.00
6196;BME280;3131;42.630;23.382;2023-01-29T02:28:24;94436.75;;;-0.85;100.00
6196;BME280;3131;42.630;23.382;2023-01-29T02:31:00;94440.47;;;-0.86;100.00
6196;BME280;3131;42.630;23.382;2023-01-29T02:33:35;94443.02;;;-0.89;100.00
6196;BME280;3131;42.630;23.382;2023-01-29T02:36:10;94445.91;;;-0.88;100.00
6196;BME280;3131;42.630;23.382;2023-01-29T02:38:44;94442.34;;;-0.96;100.00
6196;BME280;3131;42.630;23.382;2023-01-29T02:41:15;94443.22;;;-0.99;100.00
6196;BME280;3131;42.630;23.382;2023-01-29T02:43:50;94450.20;;;-0.97;100.00
6196;BME280;3131;42.630;23.382;2023-01-29T02:46:21;94447.27;;;-0.95;100.00
6196;BME280;3131;42.630;23.382;2023-01-29T02:48:54;94458.48;;;-0.98;100.00
6196;BME280;3131;42.630;23.382;2023-01-29T02:51:28;94455.20;;;-0.98;100.00
6196;BME280;3131;42.630;23.382;2023-01-29T02:54:02;94459.29;;;-0.97;100.00
6196;BME280;3131;42.630;23.382;2023-01-29T02:56:33;94454.72;;;-0.96;100.00
6196;BME280;3131;42.630;23.382;2023-01-29T02:59:06;94458.05;;;-0.97;100.00
6196;BME280;3131;42.630;23.382;2023-01-29T03:01:39;94455.34;;;-1.06;100.00
6196;BME280;3131;42.630;23.382;2023-01-29T03:04:13;94461.84;;;-1.02;100.00
6196;BME280;3131;42.630;23.382;2023-01-29T03:06:44;94450.77;;;-1.05;100.00
6196;BME280;3131;42.630;23.382;2023-01-29T03:09:15;94448.96;;;-0.97;100.00
6196;BME280;3131;42.630;23.382;2023-01-29T03:11:47;94453.34;;;-1.08;100.00
6196;BME280;3131;42.630;23.382;2023-01-29T03:14:20;94459.04;;;-1.04;100.00
6196;BME280;3131;42.630;23.382;2023-01-29T03:16:52;94461.91;;;-1.05;100.00
6196;BME280;3131;42.630;23.382;2023-01-29T03:19:25;94466.48;;;-1.06;100.00
6196;BME280;3131;42.630;23.382;2023-01-29T03:21:56;94454.16;;;-1.07;100.00
6196;BME280;3131;42.630;23.382;2023-01-29T03:24:31;94463.52;;;-1.02;100.00
6196;BME280;3131;42.630;23.382;2023-01-29T03:27:20;94465.56;;;-1.02;100.00
6196;BME280;3131;42.630;23.382;2023-01-29T03:30:10;94470.92;;;-1.01;100.00
6196;BME280;3131;42.630;23.382;2023-01-29T03:33:01;94477.06;;;-0.99;100.00
6196;BME280;3131;42.630;23.382;2023-01-29T03:35:32;94469.64;;;-0.99;100.00
6196;BME280;3131;42.630;23.382;2023-01-29T03:38:05;94470.00;;;-0.97;100.00
6196;BME280;3131;42.630;23.382;2023-01-29T03:40:43;94469.06;;;-0.91;100.00
6196;BME280;3131;42.630;23.382;2023-01-29T03:43:13;94466.95;;;-0.88;100.00
6196;BME280;3131;42.630;23.382;2023-01-29T03:45:49;94475.20;;;-0.89;100.00
6196;BME280;3131;42.630;23.382;2023-01-29T03:51:03;94486.33;;;-0.70;100.00
6196;BME280;3131;42.630;23.382;2023-01-29T03:53:36;94482.41;;;-0.79;100.00
6196;BME280;3131;42.630;23.382;2023-01-29T03:56:07;94470.05;;;-0.80;100.00
6196;BME280;3131;42.630;23.382;2023-01-29T03:58:40;94477.95;;;-0.82;100.00
6196;BME280;3131;42.630;23.382;2023-01-29T04:01:13;94435.55;;;-1.06;100.00
6196;BME280;3131;42.630;23.382;2023-01-29T04:03:45;94473.09;;;-0.87;100.00
6196;BME280;3131;42.630;23.382;2023-01-29T04:06:17;94479.20;;;-0.82;100.00
6196;BME280;3131;42.630;23.382;2023-01-29T04:08:50;94478.11;;;-0.90;100.00
6196;BME280;3131;42.630;23.382;2023-01-29T04:11:21;94474.50;;;-0.95;100.00
6196;BME280;3131;42.630;23.382;2023-01-29T04:13:51;94484.79;;;-0.94;100.00
6196;BME280;3131;42.630;23.382;2023-01-29T04:16:24;94482.74;;;-0.94;100.00
6196;BME280;3131;42.630;23.382;2023-01-29T04:18:54;94479.84;;;-0.94;100.00
6196;BME280;3131;42.630;23.382;2023-01-29T04:21:25;94482.83;;;-0.99;100.00
6196;BME280;3131;42.630;23.382;2023-01-29T04:23:55;94487.39;;;-1.00;100.00
6196;BME280;3131;42.630;23.382;2023-01-29T04:26:36;94481.57;;;-0.97;100.00
6196;BME280;3131;42.630;23.382;2023-01-29T04:29:18;94489.85;;;-0.98;100.00
6196;BME280;3131;42.630;23.382;2023-01-29T04:31:51;94479.59;;;-1.01;100.00
6196;BME280;3131;42.630;23.382;2023-01-29T04:34:23;94477.79;;;-0.94;100.00
6196;BME280;3131;42.630;23.382;2023-01-29T04:37:01;94487.38;;;-0.98;100.00
6196;BME280;3131;42.630;23.382;2023-01-29T04:39:36;94496.05;;;-1.00;100.00
6196;BME280;3131;42.630;23.382;2023-01-29T04:44:53;94499.22;;;-0.93;100.00
6196;BME280;3131;42.630;23.382;2023-01-29T04:47:25;94493.16;;;-0.99;100.00
6196;BME280;3131;42.630;23.382;2023-01-29T04:52:40;94493.01;;;-0.91;100.00
6196;BME280;3131;42.630;23.382;2023-01-29T04:57:53;94495.50;;;-0.93;100.00
6196;BME280;3131;42.630;23.382;2023-01-29T05:00:25;94496.56;;;-1.05;100.00
6196;BME280;3131;42.630;23.382;2023-01-29T05:02:56;94495.42;;;-1.08;100.00
6196;BME280;3131;42.630;23.382;2023-01-29T05:08:18;94502.30;;;-1.01;100.00
6196;BME280;3131;42.630;23.382;2023-01-29T05:10:48;94498.23;;;-1.05;100.00
6196;BME280;3131;42.630;23.382;2023-01-29T05:13:19;94491.42;;;-1.15;100.00
6196;BME280;3131;42.630;23.382;2023-01-29T05:15:53;94501.86;;;-1.01;100.00
6196;BME280;3131;42.630;23.382;2023-01-29T05:18:22;94506.40;;;-1.02;100.00
6196;BME280;3131;42.630;23.382;2023-01-29T05:20:52;94505.95;;;-1.00;100.00
6196;BME280;3131;42.630;23.382;2023-01-29T05:23:23;94427.80;;;-1.49;100.00
6196;BME280;3131;42.630;23.382;2023-01-29T05:25:53;94509.12;;;-0.93;100.00
6196;BME280;3131;42.630;23.382;2023-01-29T05:28:23;94497.34;;;-1.01;100.00
6196;BME280;3131;42.630;23.382;2023-01-29T05:30:54;94510.84;;;-0.97;100.00
6196;BME280;3131;42.630;23.382;2023-01-29T05:36:07;94520.23;;;-0.91;100.00
6196;BME280;3131;42.630;23.382;2023-01-29T05:38:36;94525.63;;;-0.94;100.00
6196;BME280;3131;42.630;23.382;2023-01-29T05:41:06;94532.19;;;-0.91;100.00
6196;BME280;3131;42.630;23.382;2023-01-29T05:43:36;94526.38;;;-0.90;100.00
6196;BME280;3131;42.630;23.382;2023-01-29T05:46:05;94525.12;;;-0.88;100.00
6196;BME280;3131;42.630;23.382;2023-01-29T05:48:35;94526.48;;;-0.95;100.00
6196;BME280;3131;42.630;23.382;2023-01-29T05:51:05;94531.44;;;-0.95;100.00
6196;BME280;3131;42.630;23.382;2023-01-29T05:53:34;94527.67;;;-0.91;100.00
6196;BME280;3131;42.630;23.382;2023-01-29T05:56:05;94528.55;;;-0.96;100.00
6196;BME280;3131;42.630;23.382;2023-01-29T05:58:34;94529.77;;;-0.94;100.00
6196;BME280;3131;42.630;23.382;2023-01-29T06:01:13;94534.23;;;-0.90;100.00
6196;BME280;3131;42.630;23.382;2023-01-29T06:03:43;94536.61;;;-0.86;100.00
6196;BME280;3131;42.630;23.382;2023-01-29T06:06:12;94534.62;;;-0.89;100.00
6196;BME280;3131;42.630;23.382;2023-01-29T06:08:42;94537.16;;;-0.92;100.00
6196;BME280;3131;42.630;23.382;2023-01-29T06:11:13;94537.09;;;-0.89;100.00
6196;BME280;3131;42.630;23.382;2023-01-29T06:13:43;94542.09;;;-0.91;100.00
6196;BME280;3131;42.630;23.382;2023-01-29T06:16:13;94547.73;;;-0.84;100.00
6196;BME280;3131;42.630;23.382;2023-01-29T06:18:42;94558.08;;;-0.86;100.00
6196;BME280;3131;42.630;23.382;2023-01-29T06:21:12;94556.34;;;-0.83;100.00
6196;BME280;3131;42.630;23.382;2023-01-29T06:23:42;94555.41;;;-0.77;100.00
6196;BME280;3131;42.630;23.382;2023-01-29T06:26:13;94562.97;;;-0.83;100.00
6196;BME280;3131;42.630;23.382;2023-01-29T06:28:42;94562.14;;;-0.82;100.00
6196;BME280;3131;42.630;23.382;2023-01-29T06:31:12;94567.78;;;-0.76;100.00
6196;BME280;3131;42.630;23.382;2023-01-29T06:33:41;94575.55;;;-0.73;100.00
6196;BME280;3131;42.630;23.382;2023-01-29T06:36:11;94578.52;;;-0.57;100.00
6196;BME280;3131;42.630;23.382;2023-01-29T06:38:40;94582.87;;;-0.48;100.00
6196;BME280;3131;42.630;23.382;2023-01-29T06:41:11;94580.98;;;-0.56;100.00
6196;BME280;3131;42.630;23.382;2023-01-29T06:43:42;94584.19;;;-0.51;100.00
6196;BME280;3131;42.630;23.382;2023-01-29T06:46:12;94585.82;;;-0.51;100.00
6196;BME280;3131;42.630;23.382;2023-01-29T06:48:41;94588.84;;;-0.38;100.00
6196;BME280;3131;42.630;23.382;2023-01-29T06:51:11;94590.39;;;-0.52;100.00
6196;BME280;3131;42.630;23.382;2023-01-29T06:53:40;94592.48;;;-0.53;100.00
6196;BME280;3131;42.630;23.382;2023-01-29T06:56:09;94600.77;;;-0.35;100.00
6196;BME280;3131;42.630;23.382;2023-01-29T06:58:39;94593.42;;;-0.39;100.00
6196;BME280;3131;42.630;23.382;2023-01-29T07:01:11;94600.85;;;-0.39;100.00
6196;BME280;3131;42.630;23.382;2023-01-29T07:03:40;94597.88;;;-0.36;100.00
6196;BME280;3131;42.630;23.382;2023-01-29T07:06:10;94599.78;;;-0.28;100.00
6196;BME280;3131;42.630;23.382;2023-01-29T07:08:40;94597.32;;;-0.29;100.00
6196;BME280;3131;42.630;23.382;2023-01-29T07:11:09;94600.02;;;-0.19;100.00
6196;BME280;3131;42.630;23.382;2023-01-29T07:13:39;94604.33;;;-0.29;100.00
6196;BME280;3131;42.630;23.382;2023-01-29T07:16:09;94606.66;;;-0.21;100.00
6196;BME280;3131;42.630;23.382;2023-01-29T07:18:38;94613.89;;;-0.12;100.00
6196;BME280;3131;42.630;23.382;2023-01-29T07:21:08;94611.68;;;-0.24;100.00
6196;BME280;3131;42.630;23.382;2023-01-29T07:23:37;94614.81;;;-0.16;100.00
6196;BME280;3131;42.630;23.382;2023-01-29T07:26:07;94613.23;;;-0.20;100.00
6196;BME280;3131;42.630;23.382;2023-01-29T07:28:37;94618.37;;;-0.10;100.00
6196;BME280;3131;42.630;23.382;2023-01-29T07:31:08;94615.83;;;-0.07;100.00
6196;BME280;3131;42.630;23.382;2023-01-29T07:33:39;94624.12;;;-0.08;100.00
6196;BME280;3131;42.630;23.382;2023-01-29T07:36:09;94626.02;;;0.01;100.00
6196;BME280;3131;42.630;23.382;2023-01-29T07:38:39;94622.61;;;0.05;100.00
6196;BME280;3131;42.630;23.382;2023-01-29T07:41:09;94633.95;;;-0.03;100.00
6196;BME280;3131;42.630;23.382;2023-01-29T07:43:39;94627.70;;;-0.02;100.00
6196;BME280;3131;42.630;23.382;2023-01-29T07:46:09;94632.97;;;0.03;100.00
6196;BME280;3131;42.630;23.382;2023-01-29T07:48:38;94631.23;;;-0.12;100.00
6196;BME280;3131;42.630;23.382;2023-01-29T07:51:08;94630.28;;;0.12;100.00
6196;BME280;3131;42.630;23.382;2023-01-29T07:53:37;94640.45;;;0.19;100.00
6196;BME280;3131;42.630;23.382;2023-01-29T07:56:07;94641.63;;;0.04;100.00
6196;BME280;3131;42.630;23.382;2023-01-29T07:58:36;94640.25;;;0.10;100.00
6196;BME280;3131;42.630;23.382;2023-01-29T08:01:07;94641.62;;;0.22;100.00
6196;BME280;3131;42.630;23.382;2023-01-29T08:03:36;94644.11;;;0.04;100.00
6196;BME280;3131;42.630;23.382;2023-01-29T08:06:06;94645.34;;;0.22;100.00
6196;BME280;3131;42.630;23.382;2023-01-29T08:08:36;94644.49;;;0.05;100.00
6196;BME280;3131;42.630;23.382;2023-01-29T08:11:05;94647.11;;;-0.01;100.00
6196;BME280;3131;42.630;23.382;2023-01-29T08:13:35;94650.46;;;-0.04;100.00
6196;BME280;3131;42.630;23.382;2023-01-29T08:16:05;94644.67;;;-0.03;100.00
6196;BME280;3131;42.630;23.382;2023-01-29T08:18:36;94649.45;;;0.05;100.00
6196;BME280;3131;42.630;23.382;2023-01-29T08:21:06;94645.78;;;0.04;100.00
6196;BME280;3131;42.630;23.382;2023-01-29T08:23:35;94644.98;;;0.02;100.00
6196;BME280;3131;42.630;23.382;2023-01-29T08:26:05;94646.31;;;0.16;100.00
6196;BME280;3131;42.630;23.382;2023-01-29T08:28:35;94649.11;;;0.20;100.00
6196;BME280;3131;42.630;23.382;2023-01-29T08:31:12;94655.95;;;0.11;100.00
6196;BME280;3131;42.630;23.382;2023-01-29T08:33:41;94660.03;;;0.13;100.00
6196;BME280;3131;42.630;23.382;2023-01-29T08:38:51;94660.14;;;0.44;100.00
6196;BME280;3131;42.630;23.382;2023-01-29T08:41:20;94655.69;;;0.21;100.00
6196;BME280;3131;42.630;23.382;2023-01-29T08:43:50;94670.50;;;0.25;100.00
6196;BME280;3131;42.630;23.382;2023-01-29T08:46:19;94663.75;;;0.13;100.00
6196;BME280;3131;42.630;23.382;2023-01-29T08:48:48;94668.95;;;0.20;100.00
6196;BME280;3131;42.630;23.382;2023-01-29T08:51:18;94670.09;;;0.06;100.00
6196;BME280;3131;42.630;23.382;2023-01-29T08:53:47;94681.13;;;0.12;100.00
6196;BME280;3131;42.630;23.382;2023-01-29T08:56:16;94682.97;;;0.21;100.00
6196;BME280;3131;42.630;23.382;2023-01-29T08:58:46;94684.75;;;0.34;100.00
6196;BME280;3131;42.630;23.382;2023-01-29T09:01:16;94692.77;;;0.45;100.00
6196;BME280;3131;42.630;23.382;2023-01-29T09:03:45;94694.81;;;0.28;100.00
6196;BME280;3131;42.630;23.382;2023-01-29T09:06:15;94696.41;;;0.31;100.00
6196;BME280;3131;42.630;23.382;2023-01-29T09:08:44;94701.95;;;0.42;100.00
6196;BME280;3131;42.630;23.382;2023-01-29T09:11:13;94701.08;;;0.44;100.00
6196;BME280;3131;42.630;23.382;2023-01-29T09:13:43;94704.44;;;0.42;100.00
6196;BME280;3131;42.630;23.382;2023-01-29T09:16:12;94700.73;;;0.40;100.00
6196;BME280;3131;42.630;23.382;2023-01-29T09:18:41;94701.98;;;0.58;100.00
6196;BME280;3131;42.630;23.382;2023-01-29T09:21:11;94702.22;;;0.48;100.00
6196;BME280;3131;42.630;23.382;2023-01-29T09:23:40;94693.84;;;0.16;100.00
6196;BME280;3131;42.630;23.382;2023-01-29T09:26:10;94697.56;;;0.35;100.00
6196;BME280;3131;42.630;23.382;2023-01-29T09:28:39;94693.58;;;0.46;100.00
6196;BME280;3131;42.630;23.382;2023-01-29T09:31:08;94693.84;;;0.35;100.00
6196;BME280;3131;42.630;23.382;2023-01-29T09:33:38;94691.46;;;0.49;100.00
6196;BME280;3131;42.630;23.382;2023-01-29T09:36:08;94689.94;;;0.61;100.00
6196;BME280;3131;42.630;23.382;2023-01-29T09:38:38;94695.80;;;0.57;100.00
6196;BME280;3131;42.630;23.382;2023-01-29T09:41:14;94695.87;;;0.54;100.00
6196;BME280;3131;42.630;23.382;2023-01-29T09:43:44;94700.18;;;0.81;100.00
6196;BME280;3131;42.630;23.382;2023-01-29T09:46:19;94691.94;;;0.63;100.00
6196;BME280;3131;42.630;23.382;2023-01-29T09:48:54;94692.27;;;0.67;100.00
6196;BME280;3131;42.630;23.382;2023-01-29T09:51:27;94692.94;;;0.74;100.00
6196;BME280;3131;42.630;23.382;2023-01-29T09:54:01;94687.05;;;0.60;100.00
6196;BME280;3131;42.630;23.382;2023-01-29T09:56:32;94695.04;;;0.55;100.00
6196;BME280;3131;42.630;23.382;2023-01-29T09:59:01;94683.52;;;0.70;100.00
6196;BME280;3131;42.630;23.382;2023-01-29T10:01:35;94688.50;;;0.85;100.00
6196;BME280;3131;42.630;23.382;2023-01-29T10:07:34;94678.78;;;0.77;100.00
6196;BME280;3131;42.630;23.382;2023-01-29T10:10:15;94678.20;;;0.66;100.00
6196;BME280;3131;42.630;23.382;2023-01-29T10:12:58;94678.14;;;0.85;100.00
6196;BME280;3131;42.630;23.382;2023-01-29T10:15:52;94682.14;;;0.75;100.00
6196;BME280;3131;42.630;23.382;2023-01-29T10:22:03;94681.41;;;0.71;100.00
6196;BME280;3131;42.630;23.382;2023-01-29T10:24:37;94673.89;;;0.56;100.00
6196;BME280;3131;42.630;23.382;2023-01-29T10:27:12;94667.77;;;0.53;100.00
6196;BME280;3131;42.630;23.382;2023-01-29T10:29:44;94668.42;;;0.60;100.00
6196;BME280;3131;42.630;23.382;2023-01-29T10:32:17;94661.99;;;0.53;100.00
6196;BME280;3131;42.630;23.382;2023-01-29T10:34:48;94663.75;;;0.48;100.00
6196;BME280;3131;42.630;23.382;2023-01-29T10:37:21;94660.16;;;0.25;100.00
6196;BME280;3131;42.630;23.382;2023-01-29T10:39:51;94656.34;;;0.30;100.00
6196;BME280;3131;42.630;23.382;2023-01-29T10:42:25;94649.28;;;0.31;100.00
6196;BME280;3131;42.630;23.382;2023-01-29T10:45:12;94645.14;;;0.48;100.00
6196;BME280;3131;42.630;23.382;2023-01-29T10:47:58;94650.95;;;0.30;100.00
6196;BME280;3131;42.630;23.382;2023-01-29T10:50:39;94651.90;;;0.25;100.00
6196;BME280;3131;42.630;23.382;2023-01-29T10:56:09;94654.95;;;0.36;100.00
6196;BME280;3131;42.630;23.382;2023-01-29T10:58:42;94643.22;;;0.42;100.00
6196;BME280;3131;42.630;23.382;2023-01-29T11:01:11;94636.97;;;0.44;100.00
6196;BME280;3131;42.630;23.382;2023-01-29T11:03:41;94640.36;;;0.41;100.00
6196;BME280;3131;42.630;23.382;2023-01-29T11:06:15;94634.18;;;0.40;100.00
6196;BME280;3131;42.630;23.382;2023-01-29T11:08:48;94638.13;;;0.47;100.00
6196;BME280;3131;42.630;23.382;2023-01-29T11:11:17;94634.89;;;0.45;100.00
6196;BME280;3131;42.630;23.382;2023-01-29T11:13:53;94637.09;;;0.39;100.00
6196;BME280;3131;42.630;23.382;2023-01-29T11:16:24;94630.31;;;0.28;100.00
6196;BME280;3131;42.630;23.382;2023-01-29T11:18:56;94638.20;;;0.44;100.00
6196;BME280;3131;42.630;23.382;2023-01-29T11:21:27;94634.34;;;0.50;100.00
6196;BME280;3131;42.630;23.382;2023-01-29T11:24:10;94631.82;;;0.35;100.00
6196;BME280;3131;42.630;23.382;2023-01-29T11:26:41;94630.81;;;0.42;100.00
6196;BME280;3131;42.630;23.382;2023-01-29T11:32:35;94629.94;;;0.78;100.00
6196;BME280;3131;42.630;23.382;2023-01-29T11:37:49;94620.86;;;1.08;100.00
6196;BME280;3131;42.630;23.382;2023-01-29T11:43:31;94614.85;;;1.31;100.00
6196;BME280;3131;42.630;23.382;2023-01-29T11:46:02;94609.59;;;1.27;100.00
6196;BME280;3131;42.630;23.382;2023-01-29T11:48:42;94607.34;;;1.48;100.00
6196;BME280;3131;42.630;23.382;2023-01-29T11:53:56;94608.19;;;2.03;100.00
6196;BME280;3131;42.630;23.382;2023-01-29T11:56:33;94616.80;;;1.65;100.00
6196;BME280;3131;42.630;23.382;2023-01-29T12:01:43;94604.78;;;1.51;100.00
6196;BME280;3131;42.630;23.382;2023-01-29T12:06:58;94613.77;;;1.83;100.00
6196;BME280;3131;42.630;23.382;2023-01-29T12:09:29;94605.93;;;1.54;100.00
6196;BME280;3131;42.630;23.382;2023-01-29T12:18:10;94604.61;;;1.12;100.00
6196;BME280;3131;42.630;23.382;2023-01-29T12:23:30;94593.65;;;1.34;100.00
6196;BME280;3131;42.630;23.382;2023-01-29T12:26:03;94599.42;;;1.35;100.00
6196;BME280;3131;42.630;23.382;2023-01-29T12:31:31;94597.71;;;1.22;100.00
6196;BME280;3131;42.630;23.382;2023-01-29T12:34:07;94604.47;;;1.17;100.00
6196;BME280;3131;42.630;23.382;2023-01-29T12:39:24;94556.11;;;0.84;100.00
6196;BME280;3131;42.630;23.382;2023-01-29T12:41:58;94608.73;;;0.97;100.00
6196;BME280;3131;42.630;23.382;2023-01-29T12:44:34;94605.41;;;0.82;100.00
6196;BME280;3131;42.630;23.382;2023-01-29T12:47:10;94599.75;;;1.08;100.00
6196;BME280;3131;42.630;23.382;2023-01-29T12:52:31;94604.95;;;1.15;100.00
6196;BME280;3131;42.630;23.382;2023-01-29T13:00:21;94600.98;;;1.24;100.00
6196;BME280;3131;42.630;23.382;2023-01-29T13:02:57;94598.72;;;1.00;100.00
6196;BME280;3131;42.630;23.382;2023-01-29T13:08:13;94603.20;;;1.19;100.00
6196;BME280;3131;42.630;23.382;2023-01-29T13:10:48;94602.03;;;1.45;100.00
6196;BME280;3131;42.630;23.382;2023-01-29T13:16:05;94606.36;;;1.68;100.00
6196;BME280;3131;42.630;23.382;2023-01-29T13:21:38;94602.78;;;1.90;100.00
6196;BME280;3131;42.630;23.382;2023-01-29T13:24:03;94597.68;;;1.95;100.00
6196;BME280;3131;42.630;23.382;2023-01-29T13:29:20;94610.51;;;3.46;100.00
6196;BME280;3131;42.630;23.382;2023-01-29T13:31:51;94620.56;;;3.19;100.00
6196;BME280;3131;42.630;23.382;2023-01-29T13:34:23;94616.73;;;2.22;100.00
6196;BME280;3131;42.630;23.382;2023-01-29T13:39:38;94626.47;;;2.15;100.00
6196;BME280;3131;42.630;23.382;2023-01-29T13:44:56;94631.48;;;2.28;100.00
6196;BME280;3131;42.630;23.382;2023-01-29T13:47:29;94633.70;;;2.49;100.00
6196;BME280;3131;42.630;23.382;2023-01-29T13:52:55;94631.14;;;2.13;100.00
6196;BME280;3131;42.630;23.382;2023-01-29T13:58:09;94640.63;;;2.79;100.00
6196;BME280;3131;42.630;23.382;2023-01-29T14:00:57;94635.90;;;2.19;100.00
6196;BME280;3131;42.630;23.382;2023-01-29T14:03:55;94637.59;;;1.32;100.00
6196;BME280;3131;42.630;23.382;2023-01-29T14:06:46;94631.33;;;1.19;100.00
6196;BME280;3131;42.630;23.382;2023-01-29T14:15:41;94628.57;;;0.66;100.00
6196;BME280;3131;42.630;23.382;2023-01-29T14:18:18;94629.81;;;0.66;100.00
6196;BME280;3131;42.630;23.382;2023-01-29T14:20:58;94620.81;;;0.45;100.00
6196;BME280;3131;42.630;23.382;2023-01-29T14:23:37;94635.36;;;0.59;100.00
6196;BME280;3131;42.630;23.382;2023-01-29T14:26:23;94628.19;;;0.49;100.00
6196;BME280;3131;42.630;23.382;2023-01-29T14:28:57;94632.15;;;0.38;100.00
6196;BME280;3131;42.630;23.382;2023-01-29T14:34:41;94643.65;;;0.42;100.00
6196;BME280;3131;42.630;23.382;2023-01-29T14:37:20;94650.09;;;0.31;100.00
6196;BME280;3131;42.630;23.382;2023-01-29T14:39:51;94654.39;;;0.42;100.00
6196;BME280;3131;42.630;23.382;2023-01-29T14:42:23;94656.63;;;0.35;100.00
6196;BME280;3131;42.630;23.382;2023-01-29T14:45:06;94655.31;;;0.38;100.00
6196;BME280;3131;42.630;23.382;2023-01-29T14:48:01;94658.61;;;0.39;100.00
6196;BME280;3131;42.630;23.382;2023-01-29T14:50:55;94650.90;;;0.32;100.00
6196;BME280;3131;42.630;23.382;2023-01-29T14:53:33;94644.15;;;0.20;100.00
6196;BME280;3131;42.630;23.382;2023-01-29T14:56:08;94643.55;;;0.29;100.00
6196;BME280;3131;42.630;23.382;2023-01-29T14:58:38;94643.31;;;0.38;100.00
6196;BME280;3131;42.630;23.382;2023-01-29T15:04:02;94637.45;;;0.42;100.00
6196;BME280;3131;42.630;23.382;2023-01-29T15:06:37;94641.14;;;0.26;100.00
6196;BME280;3131;42.630;23.382;2023-01-29T15:09:11;94634.66;;;0.20;100.00
6196;BME280;3131;42.630;23.382;2023-01-29T15:11:47;94634.30;;;0.17;100.00
6196;BME280;3131;42.630;23.382;2023-01-29T15:14:25;94636.80;;;0.16;100.00
6196;BME280;3131;42.630;23.382;2023-01-29T15:17:15;94636.89;;;0.13;100.00
6196;BME280;3131;42.630;23.382;2023-01-29T15:19:46;94632.77;;;0.12;100.00
6196;BME280;3131;42.630;23.382;2023-01-29T15:22:17;94627.92;;;0.07;100.00